SCC544 KCAE-KCHS
Flight info
| Callsign | SCC544 |
|---|---|
| Flight time | 0h 26m |
| Altitude | 11000 |
| Route | TRTLS OSPRI7 |
| Aircraft | B739/M-V/N |
Departure
| Time | 2026-04-20 22:58 |
|---|---|
| Airport | Columbia Metropolitan Airport (KCAE) |
Arrival
| Time | 2026-04-20 23:25 |
|---|---|
| Airport | Charleston International Airport (KCHS) |
| Time | Latitude | Longitude | Altitude | Speed | Heading |
|---|---|---|---|---|---|
| 2026-04-20 22:50 | 33.94548 | -81.12706 | 227 ft | 2 kts | 117° |
| 2026-04-20 22:50 | 33.94560 | -81.12719 | 230 ft | 2 kts | 182° |
| 2026-04-20 22:50 | 33.94559 | -81.12721 | 227 ft | 2 kts | 202° |
| 2026-04-20 22:51 | 33.94549 | -81.12727 | 229 ft | 0 kts | 206° |
| 2026-04-20 22:52 | 33.94546 | -81.12729 | 228 ft | 3 kts | 207° |
| 2026-04-20 22:52 | 33.94505 | -81.12746 | 227 ft | 8 kts | 194° |
| 2026-04-20 22:53 | 33.94439 | -81.12767 | 227 ft | 13 kts | 195° |
| 2026-04-20 22:53 | 33.94387 | -81.12764 | 227 ft | 0 kts | 146° |
| 2026-04-20 22:53 | 33.94357 | -81.12675 | 227 ft | 19 kts | 97° |
| 2026-04-20 22:53 | 33.94336 | -81.12510 | 227 ft | 19 kts | 102° |
| 2026-04-20 22:54 | 33.94305 | -81.12356 | 227 ft | 19 kts | 104° |
| 2026-04-20 22:54 | 33.94272 | -81.12206 | 227 ft | 18 kts | 105° |
| 2026-04-20 22:54 | 33.94240 | -81.12060 | 228 ft | 18 kts | 105° |
| 2026-04-20 22:54 | 33.94210 | -81.11919 | 229 ft | 17 kts | 104° |
| 2026-04-20 22:55 | 33.94180 | -81.11784 | 229 ft | 16 kts | 106° |
| 2026-04-20 22:55 | 33.94150 | -81.11654 | 229 ft | 16 kts | 104° |
| 2026-04-20 22:55 | 33.94123 | -81.11529 | 229 ft | 15 kts | 106° |
| 2026-04-20 22:55 | 33.94095 | -81.11411 | 229 ft | 15 kts | 105° |
| 2026-04-20 22:56 | 33.94073 | -81.11296 | 227 ft | 14 kts | 102° |
| 2026-04-20 22:56 | 33.94048 | -81.11181 | 228 ft | 16 kts | 104° |
| 2026-04-20 22:56 | 33.94019 | -81.11049 | 229 ft | 16 kts | 105° |
| 2026-04-20 22:56 | 33.93975 | -81.10930 | 228 ft | 16 kts | 158° |
| 2026-04-20 22:57 | 33.93887 | -81.10986 | 229 ft | 15 kts | 226° |
| 2026-04-20 22:57 | 33.93830 | -81.11083 | 229 ft | 14 kts | 271° |
| 2026-04-20 22:57 | 33.93838 | -81.11125 | 230 ft | 0 kts | 285° |
| 2026-04-20 22:57 | 33.93891 | -81.11370 | 229 ft | 76 kts | 284° |
| 2026-04-20 22:58 | 33.94081 | -81.12257 | 235 ft | 141 kts | 282° |
| 2026-04-20 22:58 | 33.94393 | -81.13432 | 809 ft | 151 kts | 289° |
| 2026-04-20 22:58 | 33.94792 | -81.14647 | 1507 ft | 164 kts | 302° |
| 2026-04-20 22:58 | 33.95745 | -81.15576 | 2200 ft | 188 kts | 336° |
| 2026-04-20 22:59 | 33.97134 | -81.15757 | 2563 ft | 221 kts | 9° |
| 2026-04-20 22:59 | 33.98641 | -81.15012 | 2954 ft | 245 kts | 26° |
| 2026-04-20 22:59 | 34.00098 | -81.13796 | 3378 ft | 267 kts | 46° |
| 2026-04-20 22:59 | 34.01008 | -81.11834 | 3777 ft | 273 kts | 75° |
| 2026-04-20 23:00 | 34.01168 | -81.09548 | 4211 ft | 274 kts | 90° |
| 2026-04-20 23:00 | 34.01100 | -81.07244 | 4802 ft | 276 kts | 91° |
| 2026-04-20 23:00 | 34.00995 | -81.04932 | 5378 ft | 278 kts | 92° |
| 2026-04-20 23:00 | 34.00714 | -81.02616 | 5944 ft | 291 kts | 110° |
| 2026-04-20 23:01 | 33.99514 | -81.00632 | 6545 ft | 298 kts | 144° |
| 2026-04-20 23:01 | 33.97644 | -80.99594 | 7133 ft | 298 kts | 166° |
| 2026-04-20 23:01 | 33.95634 | -80.98869 | 7723 ft | 302 kts | 166° |
| 2026-04-20 23:01 | 33.93610 | -80.98127 | 8297 ft | 306 kts | 165° |
| 2026-04-20 23:02 | 33.91571 | -80.97341 | 8881 ft | 308 kts | 165° |
| 2026-04-20 23:02 | 33.89519 | -80.96512 | 9434 ft | 312 kts | 163° |
| 2026-04-20 23:02 | 33.87488 | -80.95664 | 9980 ft | 314 kts | 162° |
| 2026-04-20 23:02 | 33.85411 | -80.94776 | 10511 ft | 322 kts | 162° |
| 2026-04-20 23:03 | 33.83220 | -80.93826 | 10891 ft | 345 kts | 162° |
| 2026-04-20 23:03 | 33.80887 | -80.92806 | 11187 ft | 369 kts | 162° |
| 2026-04-20 23:03 | 33.78383 | -80.91704 | 11161 ft | 396 kts | 161° |
| 2026-04-20 23:03 | 33.75732 | -80.90531 | 11154 ft | 414 kts | 161° |
| 2026-04-20 23:04 | 33.73007 | -80.89320 | 11030 ft | 417 kts | 161° |
| 2026-04-20 23:04 | 33.70320 | -80.88123 | 10965 ft | 415 kts | 161° |
| 2026-04-20 23:04 | 33.67614 | -80.86918 | 10965 ft | 415 kts | 161° |
| 2026-04-20 23:04 | 33.64912 | -80.85717 | 10959 ft | 415 kts | 161° |
| 2026-04-20 23:05 | 33.62183 | -80.84506 | 10976 ft | 415 kts | 161° |
| 2026-04-20 23:05 | 33.59465 | -80.83302 | 10967 ft | 419 kts | 161° |
| 2026-04-20 23:05 | 33.56720 | -80.82088 | 10976 ft | 421 kts | 161° |
| 2026-04-20 23:05 | 33.53973 | -80.80872 | 10979 ft | 419 kts | 161° |
| 2026-04-20 23:06 | 33.51237 | -80.79662 | 10983 ft | 418 kts | 161° |
| 2026-04-20 23:06 | 33.48539 | -80.78469 | 10982 ft | 419 kts | 161° |
| 2026-04-20 23:06 | 33.45792 | -80.77256 | 10987 ft | 420 kts | 161° |
| 2026-04-20 23:06 | 33.43059 | -80.76050 | 10980 ft | 420 kts | 161° |
| 2026-04-20 23:07 | 33.40285 | -80.74827 | 10983 ft | 420 kts | 161° |
| 2026-04-20 23:07 | 33.37545 | -80.73619 | 10987 ft | 419 kts | 161° |
| 2026-04-20 23:07 | 33.34803 | -80.72412 | 10981 ft | 419 kts | 161° |
| 2026-04-20 23:07 | 33.32064 | -80.71206 | 10964 ft | 420 kts | 161° |
| 2026-04-20 23:08 | 33.29324 | -80.70001 | 10975 ft | 420 kts | 161° |
| 2026-04-20 23:08 | 33.26614 | -80.68797 | 10975 ft | 421 kts | 159° |
| 2026-04-20 23:08 | 33.24112 | -80.66995 | 10970 ft | 422 kts | 137° |
| 2026-04-20 23:08 | 33.22252 | -80.64303 | 10983 ft | 420 kts | 118° |
| 2026-04-20 23:09 | 33.21071 | -80.61158 | 10970 ft | 409 kts | 108° |
| 2026-04-20 23:09 | 33.20055 | -80.58015 | 10739 ft | 397 kts | 108° |
| 2026-04-20 23:09 | 33.19083 | -80.55028 | 10574 ft | 380 kts | 108° |
| 2026-04-20 23:09 | 33.18127 | -80.52137 | 10423 ft | 364 kts | 109° |
| 2026-04-20 23:10 | 33.17206 | -80.49385 | 10270 ft | 350 kts | 109° |
| 2026-04-20 23:10 | 33.16312 | -80.46738 | 10127 ft | 337 kts | 109° |
| 2026-04-20 23:10 | 33.15447 | -80.44189 | 9976 ft | 326 kts | 109° |
| 2026-04-20 23:10 | 33.14623 | -80.41767 | 9933 ft | 312 kts | 109° |
| 2026-04-20 23:11 | 33.13765 | -80.39416 | 9665 ft | 308 kts | 118° |
| 2026-04-20 23:11 | 33.12358 | -80.37529 | 9456 ft | 303 kts | 142° |
| 2026-04-20 23:11 | 33.10649 | -80.36096 | 9262 ft | 299 kts | 146° |
| 2026-04-20 23:11 | 33.08919 | -80.34735 | 9057 ft | 296 kts | 147° |
| 2026-04-20 23:12 | 33.07202 | -80.33396 | 8837 ft | 293 kts | 147° |
| 2026-04-20 23:12 | 33.05510 | -80.32079 | 8676 ft | 286 kts | 147° |
| 2026-04-20 23:12 | 33.03883 | -80.30815 | 8507 ft | 281 kts | 147° |
| 2026-04-20 23:12 | 33.02232 | -80.29530 | 8323 ft | 285 kts | 147° |
| 2026-04-20 23:13 | 33.00562 | -80.28229 | 8117 ft | 287 kts | 147° |
| 2026-04-20 23:13 | 32.98893 | -80.26927 | 7925 ft | 285 kts | 147° |
| 2026-04-20 23:13 | 32.97237 | -80.25631 | 7717 ft | 283 kts | 147° |
| 2026-04-20 23:13 | 32.95597 | -80.24348 | 7509 ft | 281 kts | 147° |
| 2026-04-20 23:14 | 32.94537 | -80.23518 | 7384 ft | 280 kts | 147° |
| 2026-04-20 23:14 | 32.92912 | -80.22244 | 7182 ft | 278 kts | 147° |
| 2026-04-20 23:14 | 32.90780 | -80.20570 | 6911 ft | 276 kts | 147° |
| 2026-04-20 23:14 | 32.89179 | -80.19313 | 6721 ft | 275 kts | 147° |
| 2026-04-20 23:15 | 32.87588 | -80.18060 | 6500 ft | 273 kts | 147° |
| 2026-04-20 23:15 | 32.86543 | -80.17236 | 6373 ft | 272 kts | 147° |
| 2026-04-20 23:15 | 32.84959 | -80.15992 | 6172 ft | 276 kts | 147° |
| 2026-04-20 23:15 | 32.83367 | -80.14748 | 5879 ft | 267 kts | 147° |
| 2026-04-20 23:16 | 32.81862 | -80.13577 | 5580 ft | 250 kts | 147° |
| 2026-04-20 23:16 | 32.80438 | -80.12474 | 5284 ft | 237 kts | 147° |
| 2026-04-20 23:16 | 32.79081 | -80.11429 | 4999 ft | 230 kts | 147° |
| 2026-04-20 23:16 | 32.77764 | -80.10418 | 4733 ft | 226 kts | 147° |
| 2026-04-20 23:17 | 32.76450 | -80.09411 | 4457 ft | 223 kts | 147° |
| 2026-04-20 23:17 | 32.75159 | -80.08416 | 4191 ft | 220 kts | 147° |
| 2026-04-20 23:17 | 32.73883 | -80.07424 | 3910 ft | 218 kts | 147° |
| 2026-04-20 23:17 | 32.72625 | -80.06438 | 3640 ft | 216 kts | 147° |
| 2026-04-20 23:18 | 32.71377 | -80.05445 | 3367 ft | 215 kts | 147° |
| 2026-04-20 23:18 | 32.70153 | -80.04471 | 3081 ft | 207 kts | 147° |
| 2026-04-20 23:18 | 32.68979 | -80.03541 | 2801 ft | 200 kts | 147° |
| 2026-04-20 23:18 | 32.67859 | -80.02604 | 2506 ft | 194 kts | 137° |
| 2026-04-20 23:19 | 32.67229 | -80.01237 | 2207 ft | 189 kts | 98° |
| 2026-04-20 23:19 | 32.67485 | -79.99763 | 2083 ft | 189 kts | 60° |
| 2026-04-20 23:19 | 32.68224 | -79.98449 | 2069 ft | 189 kts | 57° |
| 2026-04-20 23:19 | 32.68949 | -79.97176 | 2019 ft | 186 kts | 56° |
| 2026-04-20 23:20 | 32.69669 | -79.95919 | 2016 ft | 185 kts | 57° |
| 2026-04-20 23:20 | 32.70400 | -79.94636 | 2025 ft | 187 kts | 57° |
| 2026-04-20 23:20 | 32.71267 | -79.93482 | 2002 ft | 190 kts | 31° |
| 2026-04-20 23:20 | 32.72522 | -79.93129 | 2031 ft | 187 kts | 359° |
| 2026-04-20 23:21 | 32.73812 | -79.93188 | 2018 ft | 188 kts | 357° |
| 2026-04-20 23:21 | 32.75136 | -79.93278 | 2018 ft | 188 kts | 357° |
| 2026-04-20 23:21 | 32.76433 | -79.93368 | 2025 ft | 189 kts | 353° |
| 2026-04-20 23:21 | 32.77612 | -79.93963 | 2018 ft | 186 kts | 314° |
| 2026-04-20 23:22 | 32.78541 | -79.95025 | 2006 ft | 187 kts | 321° |
| 2026-04-20 23:22 | 32.79613 | -79.95906 | 2009 ft | 188 kts | 326° |
| 2026-04-20 23:22 | 32.80721 | -79.96749 | 1994 ft | 190 kts | 326° |
| 2026-04-20 23:22 | 32.81822 | -79.97585 | 1755 ft | 182 kts | 327° |
| 2026-04-20 23:23 | 32.82854 | -79.98371 | 1526 ft | 172 kts | 326° |
| 2026-04-20 23:23 | 32.83859 | -79.99138 | 1305 ft | 171 kts | 326° |
| 2026-04-20 23:23 | 32.84845 | -79.99889 | 1056 ft | 164 kts | 325° |
| 2026-04-20 23:23 | 32.85778 | -80.00600 | 909 ft | 156 kts | 325° |
| 2026-04-20 23:24 | 32.86679 | -80.01293 | 706 ft | 158 kts | 325° |
| 2026-04-20 23:24 | 32.87584 | -80.02007 | 436 ft | 153 kts | 326° |
| 2026-04-20 23:24 | 32.88490 | -80.02689 | 245 ft | 153 kts | 326° |
| 2026-04-20 23:24 | 32.89390 | -80.03367 | 83 ft | 150 kts | 327° |
| 2026-04-20 23:25 | 32.90181 | -80.03962 | 55 ft | 109 kts | 328° |
| 2026-04-20 23:25 | 32.90636 | -80.04307 | 51 ft | 46 kts | 327° |
| 2026-04-20 23:25 | 32.90808 | -80.04408 | 56 ft | 13 kts | 23° |
| 2026-04-20 23:25 | 32.90827 | -80.04320 | 58 ft | 13 kts | 116° |
| 2026-04-20 23:26 | 32.90772 | -80.04229 | 56 ft | 14 kts | 139° |
| 2026-04-20 23:26 | 32.90703 | -80.04153 | 57 ft | 13 kts | 137° |
| 2026-04-20 23:26 | 32.90638 | -80.04083 | 56 ft | 13 kts | 141° |
| 2026-04-20 23:26 | 32.90569 | -80.04016 | 53 ft | 13 kts | 141° |
| 2026-04-20 23:27 | 32.90502 | -80.03950 | 54 ft | 12 kts | 136° |
| 2026-04-20 23:27 | 32.90435 | -80.03867 | 57 ft | 21 kts | 137° |
| 2026-04-20 23:27 | 32.90285 | -80.03706 | 61 ft | 25 kts | 139° |
| 2026-04-20 23:27 | 32.90143 | -80.03593 | 60 ft | 25 kts | 153° |
| 2026-04-20 23:28 | 32.89975 | -80.03569 | 48 ft | 24 kts | 180° |
| 2026-04-20 23:28 | 32.89814 | -80.03575 | 50 ft | 23 kts | 182° |
| 2026-04-20 23:28 | 32.89659 | -80.03581 | 46 ft | 22 kts | 179° |
| 2026-04-20 23:28 | 32.89510 | -80.03585 | 45 ft | 21 kts | 181° |
| 2026-04-20 23:29 | 32.89363 | -80.03589 | 46 ft | 21 kts | 181° |
| 2026-04-20 23:29 | 32.89284 | -80.03592 | 46 ft | 8 kts | 181° |
| 2026-04-20 23:29 | 32.89228 | -80.03594 | 46 ft | 8 kts | 181° |
| 2026-04-20 23:29 | 32.89174 | -80.03596 | 46 ft | 8 kts | 182° |
| 2026-04-20 23:30 | 32.89120 | -80.03598 | 46 ft | 8 kts | 181° |
| 2026-04-20 23:30 | 32.89056 | -80.03600 | 45 ft | 11 kts | 181° |
| 2026-04-20 23:30 | 32.88974 | -80.03607 | 44 ft | 12 kts | 187° |
| 2026-04-20 23:30 | 32.88882 | -80.03621 | 40 ft | 14 kts | 187° |
| 2026-04-20 23:31 | 32.88778 | -80.03640 | 36 ft | 16 kts | 188° |
| 2026-04-20 23:31 | 32.88684 | -80.03641 | 38 ft | 9 kts | 138° |
| 2026-04-20 23:31 | 32.88655 | -80.03573 | 37 ft | 9 kts | 133° |
| 2026-04-20 23:31 | 32.88598 | -80.03563 | 37 ft | 0 kts | 183° |